sensor_id;sensor_type;location;lat;lon;timestamp;temperature;humidity
65478;SHT31;53678;39.642;22.430;2023-02-26T00:02:17;13.19;66.22
65478;SHT31;53678;39.642;22.430;2023-02-26T00:04:43;13.22;66.29
65478;SHT31;53678;39.642;22.430;2023-02-26T00:07:09;13.28;66.07
65478;SHT31;53678;39.642;22.430;2023-02-26T00:09:34;13.39;66.04
65478;SHT31;53678;39.642;22.430;2023-02-26T00:12:00;13.41;65.85
65478;SHT31;53678;39.642;22.430;2023-02-26T00:14:27;13.43;65.51
65478;SHT31;53678;39.642;22.430;2023-02-26T00:19:40;13.43;65.74
65478;SHT31;53678;39.642;22.430;2023-02-26T00:22:06;13.41;65.82
65478;SHT31;53678;39.642;22.430;2023-02-26T00:24:32;13.51;65.38
65478;SHT31;53678;39.642;22.430;2023-02-26T00:26:58;13.35;66.04
65478;SHT31;53678;39.642;22.430;2023-02-26T00:29:25;13.32;66.16
65478;SHT31;53678;39.642;22.430;2023-02-26T00:31:51;13.35;66.00
65478;SHT31;53678;39.642;22.430;2023-02-26T00:34:17;13.31;66.27
65478;SHT31;53678;39.642;22.430;2023-02-26T00:36:51;13.34;66.09
65478;SHT31;53678;39.642;22.430;2023-02-26T00:39:47;13.35;66.18
65478;SHT31;53678;39.642;22.430;2023-02-26T00:42:15;13.19;66.84
65478;SHT31;53678;39.642;22.430;2023-02-26T00:44:41;13.24;66.29
65478;SHT31;53678;39.642;22.430;2023-02-26T00:52:58;13.03;67.06
65478;SHT31;53678;39.642;22.430;2023-02-26T00:55:25;12.77;67.93
65478;SHT31;53678;39.642;22.430;2023-02-26T00:57:51;12.67;68.38
65478;SHT31;53678;39.642;22.430;2023-02-26T01:00:17;12.80;67.79
65478;SHT31;53678;39.642;22.430;2023-02-26T01:02:44;12.90;67.26
65478;SHT31;53678;39.642;22.430;2023-02-26T01:05:10;12.90;66.75
65478;SHT31;53678;39.642;22.430;2023-02-26T01:10:19;12.66;67.08
65478;SHT31;53678;39.642;22.430;2023-02-26T01:12:46;12.52;67.76
65478;SHT31;53678;39.642;22.430;2023-02-26T01:15:12;12.22;68.35
65478;SHT31;53678;39.642;22.430;2023-02-26T01:20:19;12.22;67.97
65478;SHT31;53678;39.642;22.430;2023-02-26T01:23:22;12.30;68.11
65478;SHT31;53678;39.642;22.430;2023-02-26T01:25:54;12.36;67.99
65478;SHT31;53678;39.642;22.430;2023-02-26T01:28:23;12.37;67.79
65478;SHT31;53678;39.642;22.430;2023-02-26T01:30:51;12.37;67.93
65478;SHT31;53678;39.642;22.430;2023-02-26T01:33:28;12.39;67.63
65478;SHT31;53678;39.642;22.430;2023-02-26T01:36:05;12.21;67.98
65478;SHT31;53678;39.642;22.430;2023-02-26T01:41:29;12.25;68.09
65478;SHT31;53678;39.642;22.430;2023-02-26T01:49:51;12.22;67.98
65478;SHT31;53678;39.642;22.430;2023-02-26T01:55:15;12.04;68.81
65478;SHT31;53678;39.642;22.430;2023-02-26T01:57:42;11.95;68.75
65478;SHT31;53678;39.642;22.430;2023-02-26T02:00:09;12.05;68.40
65478;SHT31;53678;39.642;22.430;2023-02-26T02:02:37;12.04;68.61
65478;SHT31;53678;39.642;22.430;2023-02-26T02:05:17;12.01;68.70
65478;SHT31;53678;39.642;22.430;2023-02-26T02:07:46;12.01;69.05
65478;SHT31;53678;39.642;22.430;2023-02-26T02:10:11;11.85;69.81
65478;SHT31;53678;39.642;22.430;2023-02-26T02:12:43;11.94;69.45
65478;SHT31;53678;39.642;22.430;2023-02-26T02:15:19;11.99;69.46
65478;SHT31;53678;39.642;22.430;2023-02-26T02:33:49;12.05;67.86
65478;SHT31;53678;39.642;22.430;2023-02-26T02:36:31;12.01;67.98
65478;SHT31;53678;39.642;22.430;2023-02-26T02:39:04;12.04;67.44
65478;SHT31;53678;39.642;22.430;2023-02-26T02:41:36;11.98;67.75
65478;SHT31;53678;39.642;22.430;2023-02-26T02:44:05;11.98;68.38
65478;SHT31;53678;39.642;22.430;2023-02-26T02:46:37;11.99;68.60
65478;SHT31;53678;39.642;22.430;2023-02-26T02:49:10;11.82;69.10
65478;SHT31;53678;39.642;22.430;2023-02-26T02:51:43;11.64;69.82
65478;SHT31;53678;39.642;22.430;2023-02-26T02:54:42;11.56;70.79
65478;SHT31;53678;39.642;22.430;2023-02-26T02:57:19;11.44;71.42
65478;SHT31;53678;39.642;22.430;2023-02-26T02:59:56;11.46;71.51
65478;SHT31;53678;39.642;22.430;2023-02-26T03:05:21;11.46;71.99
65478;SHT31;53678;39.642;22.430;2023-02-26T03:07:56;11.57;71.97
65478;SHT31;53678;39.642;22.430;2023-02-26T03:10:23;11.48;72.00
65478;SHT31;53678;39.642;22.430;2023-02-26T03:12:49;11.50;72.36
65478;SHT31;53678;39.642;22.430;2023-02-26T03:15:32;11.31;73.11
65478;SHT31;53678;39.642;22.430;2023-02-26T03:23:44;11.13;74.01
65478;SHT31;53678;39.642;22.430;2023-02-26T03:26:30;11.20;73.47
65478;SHT31;53678;39.642;22.430;2023-02-26T03:29:06;10.64;74.81
65478;SHT31;53678;39.642;22.430;2023-02-26T03:31:45;10.31;76.80
65478;SHT31;53678;39.642;22.430;2023-02-26T03:34:17;10.55;76.08
65478;SHT31;53678;39.642;22.430;2023-02-26T03:37:05;10.75;75.60
65478;SHT31;53678;39.642;22.430;2023-02-26T03:39:37;10.91;75.04
65478;SHT31;53678;39.642;22.430;2023-02-26T03:44:59;10.82;76.20
65478;SHT31;53678;39.642;22.430;2023-02-26T03:47:27;10.91;75.95
65478;SHT31;53678;39.642;22.430;2023-02-26T03:50:07;10.96;76.46
65478;SHT31;53678;39.642;22.430;2023-02-26T03:52:48;11.02;75.29
65478;SHT31;53678;39.642;22.430;2023-02-26T03:55:34;11.03;76.28
65478;SHT31;53678;39.642;22.430;2023-02-26T03:58:15;11.15;75.37
65478;SHT31;53678;39.642;22.430;2023-02-26T04:00:57;11.15;76.13
65478;SHT31;53678;39.642;22.430;2023-02-26T04:03:44;11.26;75.50
65478;SHT31;53678;39.642;22.430;2023-02-26T04:06:10;11.43;74.48
65478;SHT31;53678;39.642;22.430;2023-02-26T04:08:37;11.37;74.12
65478;SHT31;53678;39.642;22.430;2023-02-26T04:11:04;11.15;74.56
65478;SHT31;53678;39.642;22.430;2023-02-26T04:13:31;10.96;74.57
65478;SHT31;53678;39.642;22.430;2023-02-26T04:15:57;10.83;74.56
65478;SHT31;53678;39.642;22.430;2023-02-26T04:18:23;10.81;75.09
65478;SHT31;53678;39.642;22.430;2023-02-26T04:20:49;10.67;74.93
65478;SHT31;53678;39.642;22.430;2023-02-26T04:23:15;10.33;75.81
65478;SHT31;53678;39.642;22.430;2023-02-26T04:25:41;10.11;76.62
65478;SHT31;53678;39.642;22.430;2023-02-26T04:28:08;10.21;76.17
65478;SHT31;53678;39.642;22.430;2023-02-26T04:30:34;10.30;75.72
65478;SHT31;53678;39.642;22.430;2023-02-26T04:33:02;10.36;75.80
65478;SHT31;53678;39.642;22.430;2023-02-26T04:35:28;10.40;75.99
65478;SHT31;53678;39.642;22.430;2023-02-26T04:37:56;10.37;75.66
65478;SHT31;53678;39.642;22.430;2023-02-26T04:40:22;10.54;75.99
65478;SHT31;53678;39.642;22.430;2023-02-26T04:42:50;10.73;75.77
65478;SHT31;53678;39.642;22.430;2023-02-26T04:45:21;10.85;75.62
65478;SHT31;53678;39.642;22.430;2023-02-26T04:47:47;10.89;74.81
65478;SHT31;53678;39.642;22.430;2023-02-26T04:50:13;10.86;75.07
65478;SHT31;53678;39.642;22.430;2023-02-26T04:52:40;10.89;75.95
65478;SHT31;53678;39.642;22.430;2023-02-26T04:55:07;10.98;76.76
65478;SHT31;53678;39.642;22.430;2023-02-26T04:57:36;11.10;76.95
65478;SHT31;53678;39.642;22.430;2023-02-26T05:00:03;11.15;76.67
65478;SHT31;53678;39.642;22.430;2023-02-26T05:02:33;11.22;76.55
65478;SHT31;53678;39.642;22.430;2023-02-26T05:04:59;11.10;76.32
65478;SHT31;53678;39.642;22.430;2023-02-26T05:07:24;10.65;76.47
65478;SHT31;53678;39.642;22.430;2023-02-26T05:09:50;10.75;76.39
65478;SHT31;53678;39.642;22.430;2023-02-26T05:12:16;9.97;77.64
65478;SHT31;53678;39.642;22.430;2023-02-26T05:14:42;9.89;78.38
65478;SHT31;53678;39.642;22.430;2023-02-26T05:17:08;10.07;78.02
65478;SHT31;53678;39.642;22.430;2023-02-26T05:19:33;10.11;77.55
65478;SHT31;53678;39.642;22.430;2023-02-26T05:22:00;10.25;77.01
65478;SHT31;53678;39.642;22.430;2023-02-26T05:24:25;10.29;76.74
65478;SHT31;53678;39.642;22.430;2023-02-26T05:26:51;10.33;76.67
65478;SHT31;53678;39.642;22.430;2023-02-26T05:29:17;9.83;77.71
65478;SHT31;53678;39.642;22.430;2023-02-26T05:31:43;9.49;79.64
65478;SHT31;53678;39.642;22.430;2023-02-26T05:34:09;9.62;78.72
65478;SHT31;53678;39.642;22.430;2023-02-26T05:36:35;9.46;79.07
65478;SHT31;53678;39.642;22.430;2023-02-26T05:39:01;9.78;78.86
65478;SHT31;53678;39.642;22.430;2023-02-26T05:41:26;9.68;79.43
65478;SHT31;53678;39.642;22.430;2023-02-26T05:43:52;9.83;79.43
65478;SHT31;53678;39.642;22.430;2023-02-26T05:46:18;10.03;79.27
65478;SHT31;53678;39.642;22.430;2023-02-26T05:48:43;10.23;77.87
65478;SHT31;53678;39.642;22.430;2023-02-26T05:51:09;10.23;78.85
65478;SHT31;53678;39.642;22.430;2023-02-26T05:53:35;10.52;77.95
65478;SHT31;53678;39.642;22.430;2023-02-26T05:56:01;10.48;77.99
65478;SHT31;53678;39.642;22.430;2023-02-26T05:58:27;10.60;77.23
65478;SHT31;53678;39.642;22.430;2023-02-26T06:00:53;10.10;79.12
65478;SHT31;53678;39.642;22.430;2023-02-26T06:03:18;10.11;79.81
65478;SHT31;53678;39.642;22.430;2023-02-26T06:05:44;10.47;81.55
65478;SHT31;53678;39.642;22.430;2023-02-26T06:08:10;10.38;80.27
65478;SHT31;53678;39.642;22.430;2023-02-26T06:10:39;10.41;82.61
65478;SHT31;53678;39.642;22.430;2023-02-26T06:13:05;10.57;82.21
65478;SHT31;53678;39.642;22.430;2023-02-26T06:15:31;10.82;80.31
65478;SHT31;53678;39.642;22.430;2023-02-26T06:17:57;10.85;80.34
65478;SHT31;53678;39.642;22.430;2023-02-26T06:20:22;11.03;81.23
65478;SHT31;53678;39.642;22.430;2023-02-26T06:22:48;11.18;81.56
65478;SHT31;53678;39.642;22.430;2023-02-26T06:25:14;11.33;82.01
65478;SHT31;53678;39.642;22.430;2023-02-26T06:27:40;11.57;82.37
65478;SHT31;53678;39.642;22.430;2023-02-26T06:30:06;11.75;82.09
65478;SHT31;53678;39.642;22.430;2023-02-26T06:32:32;11.84;83.15
65478;SHT31;53678;39.642;22.430;2023-02-26T06:34:58;12.01;83.54
65478;SHT31;53678;39.642;22.430;2023-02-26T06:37:24;12.14;83.53
65478;SHT31;53678;39.642;22.430;2023-02-26T06:39:49;12.22;83.59
65478;SHT31;53678;39.642;22.430;2023-02-26T06:42:15;12.30;83.55
65478;SHT31;53678;39.642;22.430;2023-02-26T06:44:41;12.36;83.93
65478;SHT31;53678;39.642;22.430;2023-02-26T06:47:06;12.43;83.90
65478;SHT31;53678;39.642;22.430;2023-02-26T06:49:32;12.52;83.70
65478;SHT31;53678;39.642;22.430;2023-02-26T06:51:58;12.56;84.01
65478;SHT31;53678;39.642;22.430;2023-02-26T06:54:23;12.61;83.83
65478;SHT31;53678;39.642;22.430;2023-02-26T06:56:49;12.66;83.97
65478;SHT31;53678;39.642;22.430;2023-02-26T06:59:15;12.68;83.93
65478;SHT31;53678;39.642;22.430;2023-02-26T07:01:41;12.77;83.66
65478;SHT31;53678;39.642;22.430;2023-02-26T07:04:06;12.94;83.47
65478;SHT31;53678;39.642;22.430;2023-02-26T07:06:32;12.97;83.20
65478;SHT31;53678;39.642;22.430;2023-02-26T07:08:58;13.16;82.82
65478;SHT31;53678;39.642;22.430;2023-02-26T07:11:23;13.34;82.12
65478;SHT31;53678;39.642;22.430;2023-02-26T07:13:49;14.18;82.54
65478;SHT31;53678;39.642;22.430;2023-02-26T07:16:19;13.93;80.28
65478;SHT31;53678;39.642;22.430;2023-02-26T07:18:45;13.70;79.27
65478;SHT31;53678;39.642;22.430;2023-02-26T07:21:10;13.76;79.42
65478;SHT31;53678;39.642;22.430;2023-02-26T07:23:37;13.76;79.15
65478;SHT31;53678;39.642;22.430;2023-02-26T07:26:03;14.03;77.40
65478;SHT31;53678;39.642;22.430;2023-02-26T07:28:29;13.99;77.27
65478;SHT31;53678;39.642;22.430;2023-02-26T07:30:56;14.11;76.90
65478;SHT31;53678;39.642;22.430;2023-02-26T07:33:22;14.16;77.17
65478;SHT31;53678;39.642;22.430;2023-02-26T07:35:48;14.28;76.25
65478;SHT31;53678;39.642;22.430;2023-02-26T07:38:14;14.35;75.62
65478;SHT31;53678;39.642;22.430;2023-02-26T07:40:39;14.45;75.53
65478;SHT31;53678;39.642;22.430;2023-02-26T07:43:05;14.57;75.07
65478;SHT31;53678;39.642;22.430;2023-02-26T07:45:31;14.49;75.25
65478;SHT31;53678;39.642;22.430;2023-02-26T07:47:56;14.41;75.51
65478;SHT31;53678;39.642;22.430;2023-02-26T07:50:23;14.69;74.86
65478;SHT31;53678;39.642;22.430;2023-02-26T07:52:51;14.80;74.81
65478;SHT31;53678;39.642;22.430;2023-02-26T07:55:18;15.06;74.38
65478;SHT31;53678;39.642;22.430;2023-02-26T07:57:44;15.47;73.55
65478;SHT31;53678;39.642;22.430;2023-02-26T08:07:43;15.99;72.00
65478;SHT31;53678;39.642;22.430;2023-02-26T08:10:10;16.37;71.22
65478;SHT31;53678;39.642;22.430;2023-02-26T08:12:36;16.50;70.77
65478;SHT31;53678;39.642;22.430;2023-02-26T08:15:03;16.36;70.55
65478;SHT31;53678;39.642;22.430;2023-02-26T08:17:29;16.32;70.33
65478;SHT31;53678;39.642;22.430;2023-02-26T08:19:55;16.66;69.55
65478;SHT31;53678;39.642;22.430;2023-02-26T08:22:21;17.00;68.61
65478;SHT31;53678;39.642;22.430;2023-02-26T08:24:48;16.96;67.12
65478;SHT31;53678;39.642;22.430;2023-02-26T08:27:15;16.92;66.53
65478;SHT31;53678;39.642;22.430;2023-02-26T08:29:41;17.19;65.41
65478;SHT31;53678;39.642;22.430;2023-02-26T08:32:09;17.50;64.60
65478;SHT31;53678;39.642;22.430;2023-02-26T08:34:36;17.38;64.86
65478;SHT31;53678;39.642;22.430;2023-02-26T08:37:02;17.42;65.16
65478;SHT31;53678;39.642;22.430;2023-02-26T08:39:28;17.43;64.24
65478;SHT31;53678;39.642;22.430;2023-02-26T08:41:58;17.46;63.64
65478;SHT31;53678;39.642;22.430;2023-02-26T08:44:23;17.18;63.59
65478;SHT31;53678;39.642;22.430;2023-02-26T08:46:49;17.18;64.04
65478;SHT31;53678;39.642;22.430;2023-02-26T08:49:15;17.01;64.90
65478;SHT31;53678;39.642;22.430;2023-02-26T08:51:40;16.88;64.72
65478;SHT31;53678;39.642;22.430;2023-02-26T08:54:06;16.84;64.74
65478;SHT31;53678;39.642;22.430;2023-02-26T08:56:33;16.64;64.83
65478;SHT31;53678;39.642;22.430;2023-02-26T08:58:59;16.64;64.96
65478;SHT31;53678;39.642;22.430;2023-02-26T09:01:24;16.59;64.99
65478;SHT31;53678;39.642;22.430;2023-02-26T09:03:50;16.54;65.07
65478;SHT31;53678;39.642;22.430;2023-02-26T09:06:16;16.49;65.15
65478;SHT31;53678;39.642;22.430;2023-02-26T09:08:42;16.47;64.95
65478;SHT31;53678;39.642;22.430;2023-02-26T09:11:08;16.50;64.68
65478;SHT31;53678;39.642;22.430;2023-02-26T09:13:34;16.46;64.79
65478;SHT31;53678;39.642;22.430;2023-02-26T09:16:00;16.53;64.61
65478;SHT31;53678;39.642;22.430;2023-02-26T09:18:26;16.52;64.48
65478;SHT31;53678;39.642;22.430;2023-02-26T09:20:52;16.57;64.48
65478;SHT31;53678;39.642;22.430;2023-02-26T09:23:18;16.63;64.50
65478;SHT31;53678;39.642;22.430;2023-02-26T09:25:45;16.68;65.04
65478;SHT31;53678;39.642;22.430;2023-02-26T09:28:11;16.81;65.03
65478;SHT31;53678;39.642;22.430;2023-02-26T09:30:37;17.01;64.75
65478;SHT31;53678;39.642;22.430;2023-02-26T09:33:02;17.22;64.14
65478;SHT31;53678;39.642;22.430;2023-02-26T09:35:28;17.33;63.98
65478;SHT31;53678;39.642;22.430;2023-02-26T09:37:54;17.63;63.52
65478;SHT31;53678;39.642;22.430;2023-02-26T09:40:25;17.46;62.68
65478;SHT31;53678;39.642;22.430;2023-02-26T09:43:06;17.42;62.51
65478;SHT31;53678;39.642;22.430;2023-02-26T09:45:38;17.43;62.65
65478;SHT31;53678;39.642;22.430;2023-02-26T09:48:06;17.57;61.82
65478;SHT31;53678;39.642;22.430;2023-02-26T09:50:42;17.66;61.17
65478;SHT31;53678;39.642;22.430;2023-02-26T09:53:21;17.86;60.44
65478;SHT31;53678;39.642;22.430;2023-02-26T09:55:50;18.00;59.85
65478;SHT31;53678;39.642;22.430;2023-02-26T09:58:22;18.18;60.10
65478;SHT31;53678;39.642;22.430;2023-02-26T10:06:30;18.34;59.11
65478;SHT31;53678;39.642;22.430;2023-02-26T10:09:13;18.30;59.24
65478;SHT31;53678;39.642;22.430;2023-02-26T10:16:47;18.55;59.06
65478;SHT31;53678;39.642;22.430;2023-02-26T10:19:22;18.51;58.50
65478;SHT31;53678;39.642;22.430;2023-02-26T10:22:15;18.59;58.32
65478;SHT31;53678;39.642;22.430;2023-02-26T10:24:59;18.56;58.19
65478;SHT31;53678;39.642;22.430;2023-02-26T10:28:07;18.45;58.73
65478;SHT31;53678;39.642;22.430;2023-02-26T10:30:43;18.44;59.27
65478;SHT31;53678;39.642;22.430;2023-02-26T10:33:20;18.59;59.55
65478;SHT31;53678;39.642;22.430;2023-02-26T10:35:53;18.53;58.77
65478;SHT31;53678;39.642;22.430;2023-02-26T10:38:25;18.63;58.97
65478;SHT31;53678;39.642;22.430;2023-02-26T10:41:09;18.24;59.71
65478;SHT31;53678;39.642;22.430;2023-02-26T10:43:40;18.27;59.70
65478;SHT31;53678;39.642;22.430;2023-02-26T10:51:39;18.70;58.88
65478;SHT31;53678;39.642;22.430;2023-02-26T10:54:28;18.75;58.62
65478;SHT31;53678;39.642;22.430;2023-02-26T10:56:56;18.83;59.03
65478;SHT31;53678;39.642;22.430;2023-02-26T10:59:22;18.86;58.89
65478;SHT31;53678;39.642;22.430;2023-02-26T11:01:50;19.00;57.24
65478;SHT31;53678;39.642;22.430;2023-02-26T11:04:20;19.06;57.66
65478;SHT31;53678;39.642;22.430;2023-02-26T11:06:57;18.97;58.21
65478;SHT31;53678;39.642;22.430;2023-02-26T11:09:24;18.92;58.12
65478;SHT31;53678;39.642;22.430;2023-02-26T11:12:14;19.00;57.51
65478;SHT31;53678;39.642;22.430;2023-02-26T11:14:42;18.97;58.75
65478;SHT31;53678;39.642;22.430;2023-02-26T11:17:28;19.14;58.72
65478;SHT31;53678;39.642;22.430;2023-02-26T11:20:03;18.90;58.77
65478;SHT31;53678;39.642;22.430;2023-02-26T11:22:33;18.88;59.39
65478;SHT31;53678;39.642;22.430;2023-02-26T11:25:01;18.99;59.51
65478;SHT31;53678;39.642;22.430;2023-02-26T11:27:35;18.93;60.10
65478;SHT31;53678;39.642;22.430;2023-02-26T11:30:14;18.96;60.33
65478;SHT31;53678;39.642;22.430;2023-02-26T11:32:42;19.09;59.77
65478;SHT31;53678;39.642;22.430;2023-02-26T11:35:14;19.30;57.64
65478;SHT31;53678;39.642;22.430;2023-02-26T11:37:44;19.51;55.44
65478;SHT31;53678;39.642;22.430;2023-02-26T11:40:22;19.55;54.25
65478;SHT31;53678;39.642;22.430;2023-02-26T11:42:52;19.61;54.22
65478;SHT31;53678;39.642;22.430;2023-02-26T11:45:19;19.65;54.37
65478;SHT31;53678;39.642;22.430;2023-02-26T11:47:48;19.67;54.10
65478;SHT31;53678;39.642;22.430;2023-02-26T11:50:19;19.74;53.40
65478;SHT31;53678;39.642;22.430;2023-02-26T11:52:54;19.82;53.23
65478;SHT31;53678;39.642;22.430;2023-02-26T11:55:21;19.90;52.79
65478;SHT31;53678;39.642;22.430;2023-02-26T11:57:55;19.83;53.27
65478;SHT31;53678;39.642;22.430;2023-02-26T12:00:28;19.65;53.84
65478;SHT31;53678;39.642;22.430;2023-02-26T12:03:06;19.74;54.31
65478;SHT31;53678;39.642;22.430;2023-02-26T12:05:35;19.85;54.13
65478;SHT31;53678;39.642;22.430;2023-02-26T12:08:12;19.72;54.10
65478;SHT31;53678;39.642;22.430;2023-02-26T12:11:02;19.95;53.42
65478;SHT31;53678;39.642;22.430;2023-02-26T12:21:27;20.25;52.60
65478;SHT31;53678;39.642;22.430;2023-02-26T12:26:40;20.32;51.30
65478;SHT31;53678;39.642;22.430;2023-02-26T12:43:49;20.58;50.74
65478;SHT31;53678;39.642;22.430;2023-02-26T12:54:49;20.68;50.40
65478;SHT31;53678;39.642;22.430;2023-02-26T12:57:49;20.65;50.07
65478;SHT31;53678;39.642;22.430;2023-02-26T13:06:39;20.54;50.48
65478;SHT31;53678;39.642;22.430;2023-02-26T13:12:06;20.50;51.27
65478;SHT31;53678;39.642;22.430;2023-02-26T13:17:13;20.40;51.30
65478;SHT31;53678;39.642;22.430;2023-02-26T13:19:46;20.32;51.66
65478;SHT31;53678;39.642;22.430;2023-02-26T13:22:29;20.37;51.16
65478;SHT31;53678;39.642;22.430;2023-02-26T13:24:56;20.39;51.33
65478;SHT31;53678;39.642;22.430;2023-02-26T13:27:28;20.41;51.66
65478;SHT31;53678;39.642;22.430;2023-02-26T13:30:22;20.37;51.82
65478;SHT31;53678;39.642;22.430;2023-02-26T13:32:52;20.29;51.41
65478;SHT31;53678;39.642;22.430;2023-02-26T13:35:39;20.29;51.49
65478;SHT31;53678;39.642;22.430;2023-02-26T13:38:18;20.30;51.65
65478;SHT31;53678;39.642;22.430;2023-02-26T13:51:39;20.16;52.31
65478;SHT31;53678;39.642;22.430;2023-02-26T14:09:45;20.06;52.82
65478;SHT31;53678;39.642;22.430;2023-02-26T14:15:18;20.04;53.05
65478;SHT31;53678;39.642;22.430;2023-02-26T14:20:21;19.95;53.17
65478;SHT31;53678;39.642;22.430;2023-02-26T14:23:26;19.96;53.48
65478;SHT31;53678;39.642;22.430;2023-02-26T14:25:46;19.86;53.92
65478;SHT31;53678;39.642;22.430;2023-02-26T14:28:20;19.90;54.14
65478;SHT31;53678;39.642;22.430;2023-02-26T14:33:44;19.95;54.33
65478;SHT31;53678;39.642;22.430;2023-02-26T14:37:13;19.92;54.28
65478;SHT31;53678;39.642;22.430;2023-02-26T14:39:24;19.97;54.22
65478;SHT31;53678;39.642;22.430;2023-02-26T14:42:02;19.97;54.39
65478;SHT31;53678;39.642;22.430;2023-02-26T14:44:35;19.95;54.83
65478;SHT31;53678;39.642;22.430;2023-02-26T14:47:01;19.69;55.24
65478;SHT31;53678;39.642;22.430;2023-02-26T14:49:35;19.62;55.07
65478;SHT31;53678;39.642;22.430;2023-02-26T14:52:24;19.61;55.26
65478;SHT31;53678;39.642;22.430;2023-02-26T14:58:18;19.53;55.49
65478;SHT31;53678;39.642;22.430;2023-02-26T15:06:28;19.35;55.93
65478;SHT31;53678;39.642;22.430;2023-02-26T15:11:56;19.26;56.26
65478;SHT31;53678;39.642;22.430;2023-02-26T15:25:39;19.10;56.42
65478;SHT31;53678;39.642;22.430;2023-02-26T15:28:19;19.11;56.48
65478;SHT31;53678;39.642;22.430;2023-02-26T15:30:47;19.14;56.47
65478;SHT31;53678;39.642;22.430;2023-02-26T15:33:13;19.04;56.37
65478;SHT31;53678;39.642;22.430;2023-02-26T15:35:43;19.00;56.45
65478;SHT31;53678;39.642;22.430;2023-02-26T15:38:09;18.96;56.53
65478;SHT31;53678;39.642;22.430;2023-02-26T15:40:35;18.90;56.85
65478;SHT31;53678;39.642;22.430;2023-02-26T15:43:06;18.85;56.83
65478;SHT31;53678;39.642;22.430;2023-02-26T15:45:38;18.77;57.12
65478;SHT31;53678;39.642;22.430;2023-02-26T15:48:13;18.72;57.18
65478;SHT31;53678;39.642;22.430;2023-02-26T15:50:43;18.63;57.26
65478;SHT31;53678;39.642;22.430;2023-02-26T15:53:15;18.58;57.22
65478;SHT31;53678;39.642;22.430;2023-02-26T15:55:49;18.56;57.31
65478;SHT31;53678;39.642;22.430;2023-02-26T15:58:32;18.52;57.28
65478;SHT31;53678;39.642;22.430;2023-02-26T16:01:00;18.48;57.29
65478;SHT31;53678;39.642;22.430;2023-02-26T16:03:31;18.44;57.43
65478;SHT31;53678;39.642;22.430;2023-02-26T16:05:58;18.39;57.10
65478;SHT31;53678;39.642;22.430;2023-02-26T16:08:24;18.41;57.12
65478;SHT31;53678;39.642;22.430;2023-02-26T16:10:52;18.31;57.12
65478;SHT31;53678;39.642;22.430;2023-02-26T16:13:28;18.32;57.06
65478;SHT31;53678;39.642;22.430;2023-02-26T16:16:00;18.34;56.84
65478;SHT31;53678;39.642;22.430;2023-02-26T16:18:26;18.30;56.83
65478;SHT31;53678;39.642;22.430;2023-02-26T16:20:54;18.27;56.89
65478;SHT31;53678;39.642;22.430;2023-02-26T16:23:45;18.18;57.01
65478;SHT31;53678;39.642;22.430;2023-02-26T16:26:20;18.15;57.20
65478;SHT31;53678;39.642;22.430;2023-02-26T16:28:50;18.07;57.38
65478;SHT31;53678;39.642;22.430;2023-02-26T16:31:20;17.86;58.00
65478;SHT31;53678;39.642;22.430;2023-02-26T16:34:01;17.72;58.46
65478;SHT31;53678;39.642;22.430;2023-02-26T16:36:35;17.63;58.81
65478;SHT31;53678;39.642;22.430;2023-02-26T16:39:23;17.52;59.17
65478;SHT31;53678;39.642;22.430;2023-02-26T16:42:01;17.42;59.42
65478;SHT31;53678;39.642;22.430;2023-02-26T16:46:58;17.35;59.80
65478;SHT31;53678;39.642;22.430;2023-02-26T16:49:29;17.10;60.81
65478;SHT31;53678;39.642;22.430;2023-02-26T16:51:56;16.89;61.29
65478;SHT31;53678;39.642;22.430;2023-02-26T16:54:25;16.68;61.68
65478;SHT31;53678;39.642;22.430;2023-02-26T16:56:58;16.54;61.81
65478;SHT31;53678;39.642;22.430;2023-02-26T16:59:30;16.52;61.80
65478;SHT31;53678;39.642;22.430;2023-02-26T17:02:03;16.66;61.03
65478;SHT31;53678;39.642;22.430;2023-02-26T17:04:33;16.78;60.55
65478;SHT31;53678;39.642;22.430;2023-02-26T17:07:00;16.94;59.64
65478;SHT31;53678;39.642;22.430;2023-02-26T17:12:10;17.16;58.83
65478;SHT31;53678;39.642;22.430;2023-02-26T17:14:39;17.29;58.11
65478;SHT31;53678;39.642;22.430;2023-02-26T17:17:06;17.36;57.83
65478;SHT31;53678;39.642;22.430;2023-02-26T17:19:32;17.28;57.96
65478;SHT31;53678;39.642;22.430;2023-02-26T17:21:58;17.32;58.09
65478;SHT31;53678;39.642;22.430;2023-02-26T17:24:35;17.23;58.02
65478;SHT31;53678;39.642;22.430;2023-02-26T17:27:03;17.29;57.79
65478;SHT31;53678;39.642;22.430;2023-02-26T17:29:40;17.32;57.63
65478;SHT31;53678;39.642;22.430;2023-02-26T17:32:17;17.29;57.51
65478;SHT31;53678;39.642;22.430;2023-02-26T17:34:43;17.32;57.58
65478;SHT31;53678;39.642;22.430;2023-02-26T17:37:11;17.25;57.76
65478;SHT31;53678;39.642;22.430;2023-02-26T17:39:37;17.15;57.96
65478;SHT31;53678;39.642;22.430;2023-02-26T17:42:03;17.11;58.31
65478;SHT31;53678;39.642;22.430;2023-02-26T17:44:28;17.14;58.21
65478;SHT31;53678;39.642;22.430;2023-02-26T17:46:54;17.01;58.44
65478;SHT31;53678;39.642;22.430;2023-02-26T17:49:20;16.98;58.61
65478;SHT31;53678;39.642;22.430;2023-02-26T17:51:45;16.91;58.91
65478;SHT31;53678;39.642;22.430;2023-02-26T17:54:11;16.71;59.35
65478;SHT31;53678;39.642;22.430;2023-02-26T17:56:37;16.66;59.71
65478;SHT31;53678;39.642;22.430;2023-02-26T17:59:03;16.61;59.87
65478;SHT31;53678;39.642;22.430;2023-02-26T18:01:29;16.61;59.80
65478;SHT31;53678;39.642;22.430;2023-02-26T18:03:55;16.66;59.57
65478;SHT31;53678;39.642;22.430;2023-02-26T18:06:23;16.66;59.60
65478;SHT31;53678;39.642;22.430;2023-02-26T18:08:49;16.75;59.41
65478;SHT31;53678;39.642;22.430;2023-02-26T18:11:16;16.75;59.38
65478;SHT31;53678;39.642;22.430;2023-02-26T18:13:42;16.73;59.44
65478;SHT31;53678;39.642;22.430;2023-02-26T18:16:19;16.64;59.75
65478;SHT31;53678;39.642;22.430;2023-02-26T18:18:46;16.54;59.99
65478;SHT31;53678;39.642;22.430;2023-02-26T18:21:12;16.44;60.26
65478;SHT31;53678;39.642;22.430;2023-02-26T18:23:39;16.40;60.40
65478;SHT31;53678;39.642;22.430;2023-02-26T18:26:05;16.34;60.57
65478;SHT31;53678;39.642;22.430;2023-02-26T18:28:31;16.39;60.48
65478;SHT31;53678;39.642;22.430;2023-02-26T18:30:57;16.34;60.49
65478;SHT31;53678;39.642;22.430;2023-02-26T18:33:23;16.32;60.63
65478;SHT31;53678;39.642;22.430;2023-02-26T18:35:52;16.32;60.64
65478;SHT31;53678;39.642;22.430;2023-02-26T18:38:22;16.32;60.63
65478;SHT31;53678;39.642;22.430;2023-02-26T18:40:48;16.32;60.63
65478;SHT31;53678;39.642;22.430;2023-02-26T18:43:14;16.26;60.75